Time;durP1;ratioP1;P1;durP2;ratioP2;P2;SDS_P1;SDS_P2;PMS_P1;PMS_P2;Temp;Humidity;BMP_temperature;BMP_pressure;BME280_temperature;BME280_humidity;BME280_pressure;Samples;Min_cycle;Max_cycle;Signal;HPM_P1;HPM_P2
2022/06/04 00:02:05;;;;;;;6.65;5.93;;;;;;;20.32;100.00;94928.97;5095965;28;20168;-61
2022/06/04 00:04:31;;;;;;;6.53;5.88;;;;;;;20.20;100.00;94924.47;5095747;28;20196;-61
2022/06/04 00:06:57;;;;;;;10.23;6.55;;;;;;;20.27;100.00;94930.50;5095815;28;20668;-61
2022/06/04 00:09:24;;;;;;;7.22;6.40;;;;;;;20.26;100.00;94919.38;5096182;28;20657;-64
2022/06/04 00:17:18;;;;;;;11.15;6.05;;;;;;;19.87;100.00;94919.69;5099976;22;20223;-64
2022/06/04 00:19:43;;;;;;;8.32;6.20;;;;;;;19.77;100.00;94919.19;5055322;28;20225;-62
2022/06/04 00:22:09;;;;;;;9.52;6.47;;;;;;;19.65;100.00;94912.06;5055166;28;20165;-61
2022/06/04 00:24:35;;;;;;;11.38;6.63;;;;;;;19.67;100.00;94916.06;5055117;28;20244;-62
2022/06/04 00:27:02;;;;;;;7.55;5.85;;;;;;;19.74;100.00;94911.78;5055656;28;20204;-63
2022/06/04 00:29:30;;;;;;;10.55;6.72;;;;;;;19.70;100.00;94915.69;5054853;28;20304;-61
2022/06/04 00:31:56;;;;;;;9.13;6.57;;;;;;;19.91;100.00;94913.19;5055120;28;20217;-63
2022/06/04 00:34:21;;;;;;;7.68;6.10;;;;;;;19.91;100.00;94920.94;5055560;28;20232;-61
2022/06/04 00:36:46;;;;;;;7.97;6.47;;;;;;;20.08;100.00;94924.09;5055078;28;20173;-63
2022/06/04 00:39:12;;;;;;;11.27;6.75;;;;;;;20.10;100.00;94922.13;5055449;28;20752;-63
2022/06/04 00:42:01;;;;;;;7.57;6.25;;;;;;;20.22;100.00;94912.19;5054938;28;20277;-63
2022/06/04 00:44:29;;;;;;;7.55;6.63;;;;;;;20.18;100.00;94913.50;5055338;28;20579;-61
2022/06/04 00:47:09;;;;;;;10.85;6.85;;;;;;;20.04;100.00;94910.75;5054810;28;20177;-60
2022/06/04 00:49:35;;;;;;;9.30;6.60;;;;;;;20.08;100.00;94901.69;5054840;28;20286;-60
2022/06/04 00:52:01;;;;;;;9.82;6.65;;;;;;;20.06;100.00;94901.06;5054784;28;20606;-63
2022/06/04 00:54:27;;;;;;;9.38;7.10;;;;;;;20.08;100.00;94893.94;5060299;23;20319;-63
2022/06/04 00:57:19;;;;;;;7.57;6.53;;;;;;;20.19;100.00;94897.03;5094877;28;20618;-63
2022/06/04 01:00:07;;;;;;;8.15;6.18;;;;;;;20.30;100.00;94891.41;5036788;28;20748;-63
2022/06/04 01:03:10;;;;;;;8.05;6.65;;;;;;;20.38;100.00;94896.47;5056448;28;20710;-61
2022/06/04 01:05:57;;;;;;;7.50;6.70;;;;;;;20.46;100.00;94898.94;5074667;28;20189;-63
2022/06/04 01:08:28;;;;;;;12.52;6.82;;;;;;;20.41;100.00;94894.31;5074372;28;20228;-60
2022/06/04 01:11:12;;;;;;;9.98;6.63;;;;;;;20.53;100.00;94894.63;5056428;28;20212;-63
2022/06/04 01:14:01;;;;;;;8.70;6.63;;;;;;;20.58;100.00;94893.06;5074386;28;20698;-63
2022/06/04 01:17:16;;;;;;;11.93;6.85;;;;;;;20.53;100.00;94884.28;5074675;28;20180;-63
2022/06/04 01:20:03;;;;;;;10.77;7.10;;;;;;;20.46;100.00;94891.19;5054057;28;20224;-62
2022/06/04 01:23:13;;;;;;;7.70;5.82;;;;;;;20.40;100.00;94897.09;5074205;28;20169;-60
2022/06/04 01:25:39;;;;;;;8.50;5.90;;;;;;;20.19;100.00;94890.13;5058266;28;20201;-63
2022/06/04 01:28:08;;;;;;;8.00;6.30;;;;;;;20.15;100.00;94888.03;5073937;28;20593;-64
2022/06/04 01:31:03;;;;;;;9.75;6.97;;;;;;;20.09;100.00;94889.56;5056127;28;20183;-63
2022/06/04 01:33:37;;;;;;;9.35;6.53;;;;;;;20.08;100.00;94882.78;5072696;28;20221;-62
2022/06/04 01:36:13;;;;;;;7.63;6.88;;;;;;;20.19;100.00;94886.69;5074193;28;20211;-63
2022/06/04 01:38:46;;;;;;;7.20;6.05;;;;;;;20.25;100.00;94891.97;5074198;28;20208;-63
2022/06/04 01:41:19;;;;;;;9.55;6.43;;;;;;;20.26;100.00;94880.63;5074106;28;20165;-61
2022/06/04 01:43:54;;;;;;;9.25;5.90;;;;;;;20.23;100.00;94880.22;5074233;28;20267;-61
2022/06/04 01:46:27;;;;;;;11.70;6.15;;;;;;;20.20;100.00;94876.19;5074388;28;20181;-62
2022/06/04 01:48:57;;;;;;;6.75;5.85;;;;;;;20.35;100.00;94886.50;5055802;28;20233;-61
2022/06/04 01:51:26;;;;;;;6.57;5.85;;;;;;;20.42;100.00;94892.53;5068210;22;20319;-61
2022/06/04 01:53:57;;;;;;;6.47;5.65;;;;;;;20.38;100.00;94888.72;5093914;28;20196;-63
2022/06/04 01:56:28;;;;;;;8.93;6.03;;;;;;;20.33;100.00;94872.97;5093925;28;20181;-63
2022/06/04 01:59:24;;;;;;;7.63;6.40;;;;;;;20.19;100.00;94866.88;5093813;28;20200;-62
2022/06/04 02:01:52;;;;;;;10.88;6.20;;;;;;;20.16;100.00;94877.53;5075682;28;20276;-60
2022/06/04 02:04:25;;;;;;;9.88;5.82;;;;;;;20.04;100.00;94879.78;5093876;28;20219;-63
2022/06/04 02:09:54;;;;;;;9.85;6.07;;;;;;;19.84;100.00;94886.50;5093344;28;20226;-61
2022/06/04 02:12:20;;;;;;;7.05;6.35;;;;;;;19.66;100.00;94890.44;5075561;28;20572;-62
2022/06/04 02:14:46;;;;;;;7.95;6.30;;;;;;;19.51;100.00;94900.78;5093463;28;20181;-61
2022/06/04 02:17:17;;;;;;;9.85;6.70;;;;;;;19.53;100.00;94916.88;5075341;28;20265;-62
2022/06/04 02:19:44;;;;;;;8.07;6.38;;;;;;;19.57;100.00;94919.88;5093200;28;20191;-63
2022/06/04 02:22:10;;;;;;;8.80;7.13;;;;;;;19.00;100.00;94935.06;5074642;28;20661;-63
2022/06/04 02:24:36;;;;;;;11.45;7.72;;;;;;;18.97;100.00;94938.78;5093251;28;20192;-62
2022/06/04 02:27:02;;;;;;;11.23;8.82;;;;;;;18.92;100.00;94935.94;5093681;28;20683;-60
2022/06/04 02:29:27;;;;;;;12.65;9.65;;;;;;;18.81;100.00;94938.09;5093162;28;20212;-63
2022/06/04 02:32:12;;;;;;;14.13;10.85;;;;;;;18.79;100.00;94938.28;5093779;28;20214;-60
2022/06/04 02:34:37;;;;;;;16.30;11.68;;;;;;;18.77;100.00;94932.50;5092875;28;20294;-63
2022/06/04 02:37:21;;;;;;;12.93;9.98;;;;;;;18.91;100.00;94939.47;5093519;28;20238;-62
2022/06/04 02:40:09;;;;;;;13.70;10.40;;;;;;;18.92;100.00;94932.56;5074837;28;20168;-61
2022/06/04 02:42:43;;;;;;;16.50;10.70;;;;;;;18.87;100.00;94945.16;5093050;28;20185;-63
2022/06/04 02:45:24;;;;;;;11.68;9.27;;;;;;;18.95;100.00;94942.50;5074620;28;20183;-61
2022/06/04 02:48:04;;;;;;;15.88;11.40;;;;;;;19.21;100.00;94945.50;5092565;28;20231;-63
2022/06/04 02:50:45;;;;;;;15.27;11.98;;;;;;;19.24;100.00;94937.44;5074623;28;20634;-63
2022/06/04 02:53:13;;;;;;;12.98;10.23;;;;;;;19.55;100.00;94930.41;5092570;28;20220;-60
2022/06/04 02:55:50;;;;;;;12.80;11.35;;;;;;;19.70;100.00;94926.03;5074481;28;20192;-64
2022/06/04 02:58:19;;;;;;;14.10;10.07;;;;;;;19.70;100.00;94927.78;5074222;28;20196;-60
2022/06/04 03:00:47;;;;;;;13.55;10.20;;;;;;;19.63;100.00;94922.56;5074261;28;20562;-62
2022/06/04 03:03:14;;;;;;;12.60;11.13;;;;;;;19.59;100.00;94931.63;5092381;28;20624;-60
2022/06/04 03:05:51;;;;;;;15.52;11.13;;;;;;;19.64;100.00;94933.66;5074260;28;20188;-62
2022/06/04 03:08:16;;;;;;;19.90;10.60;;;;;;;19.57;100.00;94937.94;5092512;28;20212;-62
2022/06/04 03:10:42;;;;;;;17.13;10.52;;;;;;;19.43;100.00;94926.66;5074268;28;20184;-61
2022/06/04 03:13:07;;;;;;;14.05;10.43;;;;;;;19.40;100.00;94919.25;5092314;28;20685;-61
2022/06/04 03:15:33;;;;;;;13.23;10.45;;;;;;;19.34;100.00;94914.00;5092410;28;20184;-63
2022/06/04 03:17:58;;;;;;;15.65;10.65;;;;;;;19.37;100.00;94921.41;5074050;28;20240;-62
2022/06/04 03:20:26;;;;;;;14.43;11.43;;;;;;;19.24;100.00;94916.81;5092298;28;20185;-61
2022/06/04 03:22:51;;;;;;;14.02;10.75;;;;;;;19.01;100.00;94913.47;5092603;28;20231;-62
2022/06/04 03:25:18;;;;;;;15.10;10.95;;;;;;;18.95;100.00;94901.28;5073975;28;20204;-61
2022/06/04 03:27:44;;;;;;;13.02;11.18;;;;;;;18.87;100.00;94898.78;5092239;28;20242;-61
2022/06/04 03:30:11;;;;;;;15.35;11.07;;;;;;;18.77;100.00;94899.03;5092252;28;20263;-61
2022/06/04 03:32:37;;;;;;;15.82;11.63;;;;;;;18.64;100.00;94901.41;5073987;28;20755;-63
2022/06/04 03:35:03;;;;;;;19.30;11.32;;;;;;;18.85;100.00;94904.09;5091109;28;20183;-62
2022/06/04 03:37:28;;;;;;;14.35;11.45;;;;;;;18.84;100.00;94902.53;5091956;28;20564;-61
2022/06/04 03:39:54;;;;;;;17.85;10.73;;;;;;;18.95;100.00;94904.66;5073903;28;20176;-61
2022/06/04 03:42:19;;;;;;;11.90;9.65;;;;;;;19.07;100.00;94911.00;5073996;28;20177;-64
2022/06/04 03:44:47;;;;;;;10.50;8.70;;;;;;;19.05;100.00;94912.13;5092171;28;20180;-62
2022/06/04 03:47:16;;;;;;;10.30;8.15;;;;;;;18.96;100.00;94911.44;5092408;28;20188;-63
2022/06/04 03:49:42;;;;;;;11.18;8.05;;;;;;;18.93;100.00;94908.38;5073598;28;20200;-61
2022/06/04 03:52:09;;;;;;;11.23;8.55;;;;;;;18.96;100.00;94903.69;5092002;28;20196;-63
2022/06/04 03:54:53;;;;;;;13.10;8.52;;;;;;;18.93;100.00;94913.53;5073599;28;20196;-63
2022/06/04 03:57:41;;;;;;;12.43;10.25;;;;;;;18.84;100.00;94909.44;5092306;28;20187;-63
2022/06/04 04:00:10;;;;;;;7.65;6.78;;;;;;;19.19;100.00;94926.81;5091689;28;20164;-62
2022/06/04 04:02:36;;;;;;;10.38;7.53;;;;;;;19.32;100.00;94924.47;5091776;28;20180;-61
2022/06/04 04:05:06;;;;;;;11.07;7.10;;;;;;;19.32;100.00;94926.22;5073435;28;20180;-61
2022/06/04 04:07:33;;;;;;;7.95;6.30;;;;;;;19.13;100.00;94924.94;5073462;28;20657;-63
2022/06/04 04:09:58;;;;;;;11.07;6.78;;;;;;;19.16;100.00;94915.13;5091715;28;20177;-63
2022/06/04 04:12:23;;;;;;;7.70;6.72;;;;;;;19.09;100.00;94915.97;5073591;28;20664;-63
2022/06/04 04:14:49;;;;;;;9.65;6.93;;;;;;;19.05;100.00;94923.25;5073398;28;20641;-61
2022/06/04 04:17:15;;;;;;;6.88;6.07;;;;;;;19.06;100.00;94924.06;5073788;28;20183;-63
2022/06/04 04:19:40;;;;;;;9.60;6.90;;;;;;;18.91;100.00;94928.38;5073342;28;20200;-60
2022/06/04 04:22:06;;;;;;;11.25;7.13;;;;;;;18.90;100.00;94932.75;5073636;28;20810;-62
2022/06/04 04:24:31;;;;;;;10.93;7.07;;;;;;;19.02;100.00;94939.09;5091723;28;20270;-61
2022/06/04 04:26:57;;;;;;;7.72;6.82;;;;;;;19.02;100.00;94933.94;5092013;28;20181;-61
2022/06/04 04:29:22;;;;;;;8.55;6.75;;;;;;;19.21;100.00;94948.06;5091390;28;20281;-62
2022/06/04 04:31:48;;;;;;;8.05;6.43;;;;;;;19.29;100.00;94942.84;5073566;28;20649;-64
2022/06/04 04:34:14;;;;;;;8.15;6.03;;;;;;;19.42;100.00;94955.97;5091391;28;20276;-63
2022/06/04 04:36:39;;;;;;;7.45;6.60;;;;;;;19.52;100.00;94956.53;5091868;28;20212;-62
2022/06/04 04:39:04;;;;;;;9.55;6.93;;;;;;;19.47;100.00;94963.19;5091342;28;20284;-61
2022/06/04 04:41:30;;;;;;;11.40;6.32;;;;;;;19.54;100.00;94969.25;5091671;28;20194;-61
2022/06/04 04:43:56;;;;;;;8.30;6.38;;;;;;;19.54;100.00;94958.91;5091233;28;20192;-63
2022/06/04 04:46:21;;;;;;;7.57;6.40;;;;;;;19.60;100.00;94969.34;5093590;28;20188;-62
2022/06/04 04:48:48;;;;;;;9.23;6.15;;;;;;;19.69;100.00;94977.81;5094852;28;20208;-63
2022/06/04 04:51:20;;;;;;;7.18;6.30;;;;;;;19.78;100.00;94993.00;5076675;28;20249;-63
2022/06/04 04:53:47;;;;;;;11.82;7.13;;;;;;;19.91;100.00;95000.16;5094768;28;20206;-61
2022/06/04 04:56:20;;;;;;;10.07;6.18;;;;;;;20.07;100.00;95008.50;5095091;28;20188;-63
2022/06/04 04:58:46;;;;;;;7.95;6.20;;;;;;;20.27;100.00;95013.13;5094798;28;20659;-62
2022/06/04 05:01:21;;;;;;;8.55;6.65;;;;;;;20.37;100.00;95013.66;5095066;28;20215;-62
2022/06/04 05:03:46;;;;;;;9.48;7.70;;;;;;;20.29;100.00;94995.69;5094821;28;20199;-64
2022/06/04 05:06:15;;;;;;;10.40;9.05;;;;;;;20.63;100.00;94978.59;5095080;28;20184;-62
2022/06/04 05:08:41;;;;;;;13.88;8.93;;;;;;;21.12;100.00;94989.03;5094420;28;20662;-62
2022/06/04 05:11:08;;;;;;;17.20;10.27;;;;;;;21.53;100.00;94989.97;5094962;28;20212;-61
2022/06/04 05:13:34;;;;;;;17.45;11.73;;;;;;;21.88;100.00;95021.88;5076401;28;20196;-60
2022/06/04 05:16:00;;;;;;;12.77;10.32;;;;;;;22.18;100.00;94983.63;5094672;28;20241;-63
2022/06/04 05:18:25;;;;;;;11.82;8.07;;;;;;;22.41;100.00;95002.25;5076339;28;20188;-63
2022/06/04 05:20:51;;;;;;;14.60;10.85;;;;;;;22.63;100.00;95042.63;5094615;28;20181;-64
2022/06/04 05:23:16;;;;;;;14.07;9.57;;;;;;;22.77;98.39;95046.88;5083820;22;20228;-63
2022/06/04 05:25:41;;;;;;;13.10;10.60;;;;;;;22.99;99.02;95042.31;5094544;28;20218;-60
2022/06/04 05:28:07;;;;;;;13.75;9.63;;;;;;;23.07;97.59;95042.94;5093155;28;20219;-61
2022/06/04 05:30:32;;;;;;;13.40;8.07;;;;;;;23.30;95.62;95050.38;5094559;28;20180;-60
2022/06/04 05:32:58;;;;;;;15.30;10.73;;;;;;;23.32;98.36;95020.69;5094491;28;20291;-60
2022/06/04 05:35:23;;;;;;;14.10;10.50;;;;;;;23.44;94.99;95059.81;5094416;28;20173;-60
2022/06/04 05:37:49;;;;;;;13.00;10.43;;;;;;;23.56;95.78;95034.03;5094531;28;20212;-63
2022/06/04 05:40:14;;;;;;;13.35;10.80;;;;;;;23.63;93.64;95047.84;5094148;28;20175;-62
2022/06/04 05:42:41;;;;;;;13.25;10.63;;;;;;;23.53;93.67;95050.03;5094127;28;20196;-63
2022/06/04 05:45:07;;;;;;;12.95;11.02;;;;;;;23.67;93.24;95046.44;5094173;28;20217;-62
2022/06/04 05:47:32;;;;;;;11.05;9.27;;;;;;;23.87;93.92;95039.44;5093893;28;20184;-63
2022/06/04 05:49:58;;;;;;;12.05;9.23;;;;;;;24.08;91.40;95065.19;5094382;28;20629;-63
2022/06/04 05:52:23;;;;;;;37.25;10.23;;;;;;;24.13;89.60;95088.78;5075849;28;20234;-61
2022/06/04 05:54:49;;;;;;;14.40;9.45;;;;;;;24.23;89.43;95077.97;5075712;28;20184;-63
2022/06/04 05:57:14;;;;;;;10.75;9.32;;;;;;;24.35;87.90;95102.34;5092851;28;20173;-64
2022/06/04 05:59:40;;;;;;;12.27;8.07;;;;;;;24.38;85.50;95122.75;5093731;28;20685;-65
2022/06/04 06:02:05;;;;;;;8.25;7.20;;;;;;;24.14;86.77;95074.78;5093698;28;20173;-64
2022/06/04 06:04:31;;;;;;;12.05;7.75;;;;;;;23.91;84.78;95113.38;5093675;28;20275;-64
2022/06/04 06:06:58;;;;;;;11.38;7.35;;;;;;;23.54;85.77;95091.38;5075389;28;20263;-63
2022/06/04 06:09:25;;;;;;;10.18;8.60;;;;;;;23.31;89.05;95044.22;5093915;28;20223;-62
2022/06/04 06:11:52;;;;;;;13.65;8.52;;;;;;;23.05;89.89;95037.16;5093161;28;20191;-61
2022/06/04 06:14:18;;;;;;;12.45;7.57;;;;;;;22.95;91.07;95021.19;5093796;28;20222;-62
2022/06/04 06:16:46;;;;;;;10.32;7.45;;;;;;;22.69;93.40;94997.78;5075160;28;20753;-61
2022/06/04 06:19:14;;;;;;;7.78;7.03;;;;;;;22.53;94.43;94987.72;5093620;28;20200;-61
2022/06/04 06:21:41;;;;;;;12.93;7.40;;;;;;;22.64;94.20;94995.00;5093266;28;20259;-61
2022/06/04 06:24:10;;;;;;;10.70;7.72;;;;;;;22.78;94.13;94996.63;5093235;28;20212;-61
2022/06/04 06:26:43;;;;;;;13.57;7.65;;;;;;;22.78;93.31;95001.81;5093119;28;20634;-60
2022/06/04 06:29:08;;;;;;;14.57;11.30;;;;;;;22.79;92.48;95002.59;5093162;28;20219;-60
2022/06/04 06:31:34;;;;;;;11.00;7.72;;;;;;;23.14;91.23;95014.44;5093009;28;20172;-61
2022/06/04 06:34:01;;;;;;;9.90;6.93;;;;;;;23.17;91.62;94999.25;5093276;28;20197;-63
2022/06/04 06:36:28;;;;;;;8.10;6.90;;;;;;;23.00;92.34;94999.84;5092878;28;20187;-61
2022/06/04 06:38:54;;;;;;;12.02;8.23;;;;;;;22.89;92.44;94993.44;5075006;28;20208;-61
2022/06/04 06:41:23;;;;;;;16.35;12.20;;;;;;;22.46;95.15;94961.00;5093062;28;20164;-61
2022/06/04 06:43:51;;;;;;;11.88;8.65;;;;;;;22.84;94.74;94977.69;5092898;28;20592;-63
2022/06/04 06:46:30;;;;;;;11.15;8.00;;;;;;;23.11;92.55;94989.69;5072837;28;20193;-61
2022/06/04 06:49:10;;;;;;;14.65;8.23;;;;;;;23.11;92.22;94997.47;5072860;28;20276;-61
2022/06/04 06:51:49;;;;;;;13.35;8.30;;;;;;;23.00;93.92;94977.31;5072511;28;20179;-61
2022/06/04 06:54:18;;;;;;;13.38;8.60;;;;;;;22.80;92.99;94981.66;5072464;28;20205;-63
2022/06/04 06:56:46;;;;;;;10.10;7.97;;;;;;;23.14;92.44;94978.91;5072282;28;20226;-61
2022/06/04 06:59:12;;;;;;;10.90;7.88;;;;;;;23.33;86.07;95065.59;5072898;28;20215;-60
2022/06/04 07:01:38;;;;;;;10.73;7.47;;;;;;;23.30;87.95;95020.03;5054332;28;20173;-60
2022/06/04 07:04:05;;;;;;;10.23;8.18;;;;;;;23.51;87.76;95011.31;5072658;28;20254;-63
2022/06/04 07:06:32;;;;;;;9.27;8.13;;;;;;;23.63;88.52;95011.50;5054170;28;20264;-61
2022/06/04 07:08:59;;;;;;;9.70;7.63;;;;;;;23.85;86.64;95034.44;5054101;28;20213;-62
2022/06/04 07:11:25;;;;;;;11.98;8.38;;;;;;;23.74;86.76;95021.25;5072015;28;20177;-61
2022/06/04 07:13:51;;;;;;;13.60;8.48;;;;;;;23.79;88.11;95000.69;5072634;28;20312;-62
2022/06/04 07:16:17;;;;;;;18.35;9.38;;;;;;;23.98;89.05;94981.66;5072250;28;20188;-61
2022/06/04 07:18:42;;;;;;;19.63;9.55;;;;;;;23.76;90.02;94969.91;5072299;28;20213;-60
2022/06/04 07:21:08;;;;;;;14.15;11.43;;;;;;;23.98;89.76;94976.47;5072121;28;20212;-61
2022/06/04 07:23:35;;;;;;;15.90;10.43;;;;;;;24.39;88.91;94984.75;5071583;28;20212;-61
2022/06/04 07:26:04;;;;;;;13.57;8.65;;;;;;;24.64;86.01;95024.66;5071935;28;20310;-63
2022/06/04 07:28:29;;;;;;;15.73;8.05;;;;;;;24.48;84.67;95025.13;5053820;28;20216;-62
2022/06/04 07:30:56;;;;;;;13.98;9.27;;;;;;;24.82;85.18;95009.22;5053815;28;20221;-60
2022/06/04 07:33:21;;;;;;;16.70;8.23;;;;;;;25.17;82.87;95035.59;5071637;28;20674;-63
2022/06/04 07:35:48;;;;;;;12.65;8.00;;;;;;;25.35;81.36;95047.91;5071635;28;20217;-62
2022/06/04 07:38:14;;;;;;;9.85;6.97;;;;;;;25.32;77.39;95089.97;5053704;28;20259;-62
2022/06/04 07:40:40;;;;;;;9.20;7.10;;;;;;;25.12;78.54;95058.88;5071723;28;20592;-62
2022/06/04 07:43:06;;;;;;;11.02;7.55;;;;;;;25.03;79.17;95038.50;5071946;28;20288;-59
2022/06/04 07:45:33;;;;;;;12.23;6.93;;;;;;;24.98;79.73;95019.13;5071876;28;20169;-63
2022/06/04 07:47:58;;;;;;;12.15;7.15;;;;;;;25.32;82.02;94988.44;5053410;28;20224;-63
2022/06/04 07:50:24;;;;;;;11.85;6.82;;;;;;;25.66;80.28;95027.88;5071611;28;20635;-61
2022/06/04 07:52:49;;;;;;;12.32;8.13;;;;;;;25.99;79.19;95030.19;5071521;28;20201;-63
2022/06/04 07:55:15;;;;;;;11.25;7.30;;;;;;;26.21;77.31;95064.47;5071652;28;20259;-59
2022/06/04 07:57:41;;;;;;;15.73;6.47;;;;;;;26.23;76.27;95065.88;5071618;28;20205;-60
2022/06/04 08:00:08;;;;;;;10.23;7.15;;;;;;;26.27;76.85;95054.00;5071427;28;20642;-61
2022/06/04 08:02:34;;;;;;;16.05;7.35;;;;;;;26.46;75.51;95078.28;5053422;28;20737;-61
2022/06/04 08:05:00;;;;;;;9.70;7.13;;;;;;;26.63;77.25;95021.88;5071522;28;20662;-64
2022/06/04 08:07:26;;;;;;;15.98;7.80;;;;;;;26.79;77.75;95025.72;5071545;28;20185;-63
2022/06/04 08:09:53;;;;;;;13.55;7.75;;;;;;;26.91;76.76;95044.84;5053588;28;20194;-60
2022/06/04 08:12:18;;;;;;;14.55;8.02;;;;;;;26.98;75.13;95061.22;5071362;28;20659;-62
2022/06/04 08:14:46;;;;;;;12.45;7.15;;;;;;;27.08;75.04;95046.63;5071337;28;20637;-63
2022/06/04 08:17:12;;;;;;;14.25;6.20;;;;;;;27.06;73.14;95077.38;5071204;28;20177;-64
2022/06/04 08:19:38;;;;;;;17.17;7.95;;;;;;;27.17;72.90;95078.47;5053198;28;20276;-63
2022/06/04 08:22:05;;;;;;;18.85;7.65;;;;;;;27.11;74.59;95029.75;5074862;28;20277;-59
2022/06/04 08:24:30;;;;;;;11.85;7.57;;;;;;;26.87;74.90;95014.97;5075115;28;20295;-61
2022/06/04 08:27:00;;;;;;;11.95;7.10;;;;;;;26.97;74.02;95023.88;5040993;28;20624;-61
2022/06/04 08:29:30;;;;;;;13.68;7.55;;;;;;;27.11;75.62;94999.19;5057385;28;20680;-61
2022/06/04 08:31:55;;;;;;;12.85;9.18;;;;;;;27.38;74.16;95015.28;5057264;28;20231;-63
2022/06/04 08:34:21;;;;;;;16.23;7.53;;;;;;;27.58;71.88;95070.66;5075214;28;20200;-63
2022/06/04 08:36:47;;;;;;;11.23;7.45;;;;;;;27.69;71.81;95054.22;5075201;28;20266;-61
2022/06/04 08:39:12;;;;;;;12.48;6.60;;;;;;;27.64;69.10;95082.00;5075680;28;20328;-61
2022/06/04 08:41:40;;;;;;;10.85;5.75;;;;;;;27.58;69.70;95065.41;5074910;28;20183;-62
2022/06/04 08:44:18;;;;;;;11.13;5.78;;;;;;;27.43;66.58;95105.03;5075656;28;20197;-60
2022/06/04 08:47:25;;;;;;;11.35;6.32;;;;;;;27.40;69.28;95039.38;5057018;28;20701;-62
2022/06/04 08:49:50;;;;;;;6.28;5.28;;;;;;;27.17;69.54;95034.06;5043418;28;20197;-61
2022/06/04 08:52:32;;;;;;;8.52;5.30;;;;;;;27.00;68.79;95054.78;5074834;28;20181;-60
2022/06/04 08:58:03;;;;;;;7.38;4.90;;;;;;;27.13;67.49;95049.38;5074560;28;20239;-61
2022/06/04 09:00:43;;;;;;;9.70;5.22;;;;;;;26.93;67.13;95048.03;5056602;28;20177;-61
2022/06/04 09:03:18;;;;;;;8.85;5.38;;;;;;;26.87;67.30;95038.47;5074683;28;20262;-62
2022/06/04 09:06:19;;;;;;;8.05;5.32;;;;;;;26.93;67.01;95037.59;5056500;28;20277;-60
2022/06/04 09:08:47;;;;;;;7.28;5.32;;;;;;;27.22;66.97;95044.63;5074547;28;20220;-62
2022/06/04 09:11:39;;;;;;;10.68;5.57;;;;;;;27.35;66.41;95052.31;5056478;28;20266;-61
2022/06/04 09:14:13;;;;;;;12.80;4.80;;;;;;;27.21;67.06;95030.00;5055855;28;20250;-61
2022/06/04 09:16:46;;;;;;;4.57;4.15;;;;;;;27.32;67.54;95029.22;5116232;22;20224;-62
2022/06/04 09:19:20;;;;;;;5.70;4.13;;;;;;;27.34;61.91;95145.53;5135416;27;20199;-62
2022/06/04 09:21:47;;;;;;;7.72;4.97;;;;;;;27.27;64.84;95070.88;5135437;27;20173;-63
2022/06/04 09:24:12;;;;;;;6.82;4.60;;;;;;;27.21;66.11;95045.66;5135296;27;20274;-61
2022/06/04 09:26:49;;;;;;;10.05;5.47;;;;;;;27.61;66.47;95025.00;5135378;27;20224;-63
2022/06/04 09:29:40;;;;;;;7.25;5.25;;;;;;;27.79;66.35;95037.97;5135248;27;20229;-59
2022/06/04 09:32:21;;;;;;;9.15;5.28;;;;;;;27.93;65.31;95052.41;5134051;27;20194;-60
2022/06/04 09:34:50;;;;;;;6.82;4.55;;;;;;;28.10;63.31;95100.41;5135325;27;20769;-61
2022/06/04 09:37:16;;;;;;;10.80;4.72;;;;;;;27.96;63.50;95080.72;5135339;27;20179;-61
2022/06/04 09:39:45;;;;;;;5.63;4.53;;;;;;;28.26;65.18;95038.78;5135083;27;20199;-60
2022/06/04 09:42:10;;;;;;;7.80;5.50;;;;;;;28.66;64.09;95078.91;5135234;27;20525;-63
2022/06/04 09:44:47;;;;;;;5.93;4.32;;;;;;;28.69;61.65;95131.59;5116506;27;20333;-62
2022/06/04 09:47:22;;;;;;;9.18;4.55;;;;;;;28.40;56.46;95195.31;5116499;27;20685;-59
2022/06/04 09:49:55;;;;;;;26.60;18.13;;;;;;;28.24;56.94;95149.66;5116722;27;20213;-63
2022/06/04 09:52:39;;;;;;;13.00;7.72;;;;;;;28.49;59.08;95098.91;5134713;27;20182;-63
2022/06/04 09:55:25;;;;;;;11.30;4.93;;;;;;;28.61;56.85;95144.22;5116456;27;20687;-63
2022/06/04 09:58:02;;;;;;;7.07;5.38;;;;;;;29.16;58.04;95118.41;5134819;27;20353;-60
2022/06/04 10:00:31;;;;;;;5.85;4.10;;;;;;;29.06;58.06;95108.50;5134972;27;20207;-62
2022/06/04 10:03:10;;;;;;;10.75;4.65;;;;;;;29.03;58.65;95093.25;5134598;27;20191;-62
2022/06/04 10:05:36;;;;;;;13.68;8.10;;;;;;;28.42;55.96;95148.78;5116248;27;20186;-60
2022/06/04 10:08:12;;;;;;;7.07;4.78;;;;;;;28.15;56.85;95106.56;5134395;27;20209;-60
2022/06/04 10:10:48;;;;;;;5.43;4.60;;;;;;;28.37;58.00;95085.84;5134908;27;20178;-60
2022/06/04 10:16:17;;;;;;;7.93;4.78;;;;;;;27.79;57.48;95071.94;5135181;27;20201;-61
2022/06/04 10:18:55;;;;;;;7.43;4.30;;;;;;;27.53;57.90;95080.19;5134348;27;20199;-61
2022/06/04 10:21:34;;;;;;;10.60;4.57;;;;;;;27.69;57.55;95080.34;5134872;27;20191;-62
2022/06/04 10:24:04;;;;;;;6.93;4.57;;;;;;;27.63;57.24;95076.00;5134345;27;20202;-60
2022/06/04 10:27:24;;;;;;;9.70;4.80;;;;;;;27.90;58.58;95037.16;5133966;27;20263;-61
2022/06/04 10:30:04;;;;;;;7.03;4.43;;;;;;;27.99;57.00;95088.94;5034266;28;20259;-64
2022/06/04 10:33:14;;;;;;;8.48;4.13;;;;;;;27.95;55.55;95105.25;5115514;27;20569;-60
2022/06/04 10:36:13;;;;;;;6.22;4.30;;;;;;;28.36;56.40;95080.84;5116708;27;20678;-61
2022/06/04 10:39:00;;;;;;;6.13;4.22;;;;;;;28.57;55.85;95088.94;5134025;27;20191;-60
2022/06/04 10:41:40;;;;;;;7.57;4.22;;;;;;;29.06;53.26;95155.66;5115588;27;20656;-61
2022/06/04 10:44:13;;;;;;;8.95;4.75;;;;;;;29.72;55.57;95084.34;5133253;27;20593;-61
2022/06/04 10:47:13;;;;;;;6.95;4.72;;;;;;;29.85;56.39;95065.69;5133728;27;20167;-61
2022/06/04 10:49:51;;;;;;;6.90;4.80;;;;;;;30.31;53.56;95112.56;5133713;27;20217;-60
2022/06/04 10:52:25;;;;;;;8.07;4.82;;;;;;;29.87;52.28;95155.41;5133808;27;20171;-62
2022/06/04 10:55:14;;;;;;;7.25;4.35;;;;;;;29.23;51.36;95161.78;5133970;27;20198;-65
2022/06/04 10:57:52;;;;;;;13.43;4.82;;;;;;;29.18;51.48;95151.22;5132882;27;20721;-62
2022/06/04 11:00:20;;;;;;;7.50;4.75;;;;;;;29.27;50.09;95170.75;5133950;27;20210;-60
2022/06/04 11:02:55;;;;;;;6.45;4.25;;;;;;;30.00;49.59;95170.03;5115003;27;20595;-61
2022/06/04 11:05:27;;;;;;;6.15;5.05;;;;;;;30.13;50.86;95141.66;5115358;27;20232;-61
2022/06/04 11:08:08;;;;;;;8.95;5.40;;;;;;;30.39;50.03;95142.88;5133443;27;20655;-62
2022/06/04 11:10:36;;;;;;;8.52;4.35;;;;;;;30.98;48.05;95201.75;5115309;27;20560;-65
2022/06/04 11:13:20;;;;;;;7.45;5.00;;;;;;;30.88;47.33;95210.31;5114958;27;20198;-62
2022/06/04 11:16:06;;;;;;;9.85;5.07;;;;;;;31.25;46.29;95207.91;5114612;28;20216;-64
2022/06/04 11:18:41;;;;;;;8.00;4.93;;;;;;;31.77;46.79;95169.59;5114143;28;20301;-62
2022/06/04 11:21:13;;;;;;;6.15;4.60;;;;;;;31.50;45.91;95189.03;5133012;28;20178;-62
2022/06/04 11:23:47;;;;;;;8.75;4.78;;;;;;;31.47;45.58;95207.94;5132484;28;20274;-61
2022/06/04 11:26:21;;;;;;;8.82;4.85;;;;;;;31.97;45.52;95196.13;5114382;28;20281;-61
2022/06/04 11:28:47;;;;;;;5.88;4.50;;;;;;;31.43;44.57;95211.03;5113842;28;20589;-60
2022/06/04 11:31:32;;;;;;;9.65;4.60;;;;;;;31.44;43.83;95233.66;5132969;28;20191;-64
2022/06/04 11:34:12;;;;;;;7.68;4.80;;;;;;;31.39;44.38;95199.41;5113991;28;20778;-62
2022/06/04 11:36:51;;;;;;;6.15;4.47;;;;;;;30.72;45.42;95171.72;5132256;28;20178;-60
2022/06/04 11:39:24;;;;;;;6.00;4.40;;;;;;;31.61;44.69;95193.38;5113875;28;20255;-64
2022/06/04 11:42:41;;;;;;;8.50;5.03;;;;;;;31.40;46.04;95135.31;5132226;28;20216;-64
2022/06/04 11:45:44;;;;;;;7.65;5.20;;;;;;;31.15;44.67;95182.28;5097823;28;20199;-61
2022/06/04 11:48:40;;;;;;;6.85;5.20;;;;;;;31.21;45.68;95133.22;5132147;28;20274;-60
2022/06/04 11:51:29;;;;;;;11.63;5.55;;;;;;;30.78;46.59;95110.34;5132504;28;20195;-64
2022/06/04 11:54:40;;;;;;;8.57;5.35;;;;;;;30.86;46.96;95088.13;5132021;28;20244;-64
2022/06/04 11:57:54;;;;;;;7.45;5.25;;;;;;;30.60;47.67;95077.25;5093325;28;20201;-60
2022/06/04 12:00:37;;;;;;;7.80;5.50;;;;;;;30.80;45.75;95108.25;5132135;28;20277;-63
2022/06/04 12:03:29;;;;;;;8.68;5.68;;;;;;;30.61;48.33;95043.94;4838120;22;8052307;-60